Aviation Digital Data Service (ADDS)

Output produced by METARs form (0627 UTC 23 February 2018)
found at http://aviationweather.gov/adds/metars/
 
KALB 230546Z 2306/2406 VRB03KT 6SM BR SKC 
     FM231100 14006KT P6SM BKN150 
     FM231500 16010KT 5SM -RASNPL OVC035 
     FM231800 18008KT 3SM -RA BR OVC015 
     FM240000 18012KT P6SM VCSH BKN020